sensor_id;sensor_type;location;lat;lon;timestamp;P1;durP1;ratioP1;P2;durP2;ratioP2
9892;SDS011;4985;49.092;8.542;2023-07-30T00:01:22;1.30;;;1.10;;
9892;SDS011;4985;49.092;8.542;2023-07-30T00:03:49;2.58;;;0.90;;
9892;SDS011;4985;49.092;8.542;2023-07-30T00:06:15;0.82;;;0.82;;
9892;SDS011;4985;49.092;8.542;2023-07-30T00:08:43;0.80;;;0.70;;
9892;SDS011;4985;49.092;8.542;2023-07-30T00:11:10;0.60;;;0.60;;
9892;SDS011;4985;49.092;8.542;2023-07-30T00:13:36;0.77;;;0.77;;
9892;SDS011;4985;49.092;8.542;2023-07-30T00:16:03;0.90;;;0.77;;
9892;SDS011;4985;49.092;8.542;2023-07-30T00:18:30;0.60;;;0.60;;
9892;SDS011;4985;49.092;8.542;2023-07-30T00:20:56;1.23;;;0.93;;
9892;SDS011;4985;49.092;8.542;2023-07-30T00:23:23;0.98;;;0.70;;
9892;SDS011;4985;49.092;8.542;2023-07-30T00:25:51;2.35;;;0.98;;
9892;SDS011;4985;49.092;8.542;2023-07-30T00:28:17;0.68;;;0.68;;
9892;SDS011;4985;49.092;8.542;2023-07-30T00:30:44;0.85;;;0.80;;
9892;SDS011;4985;49.092;8.542;2023-07-30T00:33:11;1.00;;;0.93;;
9892;SDS011;4985;49.092;8.542;2023-07-30T00:35:38;0.75;;;0.75;;
9892;SDS011;4985;49.092;8.542;2023-07-30T00:38:04;1.05;;;0.95;;
9892;SDS011;4985;49.092;8.542;2023-07-30T00:40:31;1.23;;;0.77;;
9892;SDS011;4985;49.092;8.542;2023-07-30T00:42:59;0.80;;;0.80;;
9892;SDS011;4985;49.092;8.542;2023-07-30T00:45:25;3.03;;;0.75;;
9892;SDS011;4985;49.092;8.542;2023-07-30T00:47:52;0.82;;;0.82;;
9892;SDS011;4985;49.092;8.542;2023-07-30T00:50:19;0.82;;;0.68;;
9892;SDS011;4985;49.092;8.542;2023-07-30T00:52:45;1.90;;;0.80;;
9892;SDS011;4985;49.092;8.542;2023-07-30T00:55:12;1.02;;;1.00;;
9892;SDS011;4985;49.092;8.542;2023-07-30T00:57:40;1.08;;;0.95;;
9892;SDS011;4985;49.092;8.542;2023-07-30T01:00:09;1.55;;;0.95;;
9892;SDS011;4985;49.092;8.542;2023-07-30T01:02:37;1.42;;;0.82;;
9892;SDS011;4985;49.092;8.542;2023-07-30T01:05:04;1.00;;;0.80;;
9892;SDS011;4985;49.092;8.542;2023-07-30T01:07:31;3.45;;;0.90;;
9892;SDS011;4985;49.092;8.542;2023-07-30T01:09:58;0.80;;;0.80;;
9892;SDS011;4985;49.092;8.542;2023-07-30T01:12:26;1.87;;;1.00;;
9892;SDS011;4985;49.092;8.542;2023-07-30T01:14:54;0.95;;;0.85;;
9892;SDS011;4985;49.092;8.542;2023-07-30T01:17:23;1.45;;;0.90;;
9892;SDS011;4985;49.092;8.542;2023-07-30T01:19:52;1.42;;;1.00;;
9892;SDS011;4985;49.092;8.542;2023-07-30T01:22:21;1.00;;;0.90;;
9892;SDS011;4985;49.092;8.542;2023-07-30T01:24:47;0.80;;;0.80;;
9892;SDS011;4985;49.092;8.542;2023-07-30T01:27:16;0.80;;;0.80;;
9892;SDS011;4985;49.092;8.542;2023-07-30T01:29:48;1.00;;;0.90;;
9892;SDS011;4985;49.092;8.542;2023-07-30T01:32:22;0.98;;;0.90;;
9892;SDS011;4985;49.092;8.542;2023-07-30T01:34:52;2.53;;;1.30;;
9892;SDS011;4985;49.092;8.542;2023-07-30T01:37:21;2.90;;;1.10;;
9892;SDS011;4985;49.092;8.542;2023-07-30T01:39:48;1.00;;;0.90;;
9892;SDS011;4985;49.092;8.542;2023-07-30T01:42:16;1.37;;;1.20;;
9892;SDS011;4985;49.092;8.542;2023-07-30T01:44:42;1.10;;;1.00;;
9892;SDS011;4985;49.092;8.542;2023-07-30T01:47:09;0.98;;;0.95;;
9892;SDS011;4985;49.092;8.542;2023-07-30T01:49:35;1.17;;;1.08;;
9892;SDS011;4985;49.092;8.542;2023-07-30T01:52:02;1.12;;;1.00;;
9892;SDS011;4985;49.092;8.542;2023-07-30T01:54:30;1.40;;;1.20;;
9892;SDS011;4985;49.092;8.542;2023-07-30T01:56:57;1.15;;;1.05;;
9892;SDS011;4985;49.092;8.542;2023-07-30T01:59:24;1.23;;;1.12;;
9892;SDS011;4985;49.092;8.542;2023-07-30T02:01:50;4.15;;;1.42;;
9892;SDS011;4985;49.092;8.542;2023-07-30T02:04:17;1.27;;;1.10;;
9892;SDS011;4985;49.092;8.542;2023-07-30T02:06:43;2.30;;;1.42;;
9892;SDS011;4985;49.092;8.542;2023-07-30T02:09:10;2.15;;;1.40;;
9892;SDS011;4985;49.092;8.542;2023-07-30T02:11:38;1.58;;;1.30;;
9892;SDS011;4985;49.092;8.542;2023-07-30T02:14:04;1.90;;;1.40;;
9892;SDS011;4985;49.092;8.542;2023-07-30T02:16:31;2.87;;;1.33;;
9892;SDS011;4985;49.092;8.542;2023-07-30T02:18:57;2.03;;;1.20;;
9892;SDS011;4985;49.092;8.542;2023-07-30T02:21:24;2.42;;;1.12;;
9892;SDS011;4985;49.092;8.542;2023-07-30T02:23:50;1.70;;;1.40;;
9892;SDS011;4985;49.092;8.542;2023-07-30T02:26:17;1.42;;;1.33;;
9892;SDS011;4985;49.092;8.542;2023-07-30T02:28:45;1.73;;;1.40;;
9892;SDS011;4985;49.092;8.542;2023-07-30T02:31:11;1.55;;;1.30;;
9892;SDS011;4985;49.092;8.542;2023-07-30T02:33:38;1.60;;;1.27;;
9892;SDS011;4985;49.092;8.542;2023-07-30T02:36:05;3.35;;;1.50;;
9892;SDS011;4985;49.092;8.542;2023-07-30T02:38:31;1.62;;;1.50;;
9892;SDS011;4985;49.092;8.542;2023-07-30T02:40:58;2.53;;;1.37;;
9892;SDS011;4985;49.092;8.542;2023-07-30T02:43:24;1.98;;;1.42;;
9892;SDS011;4985;49.092;8.542;2023-07-30T02:45:52;2.55;;;1.67;;
9892;SDS011;4985;49.092;8.542;2023-07-30T02:48:19;1.48;;;1.37;;
9892;SDS011;4985;49.092;8.542;2023-07-30T02:50:45;1.85;;;1.70;;
9892;SDS011;4985;49.092;8.542;2023-07-30T02:53:12;1.52;;;1.33;;
9892;SDS011;4985;49.092;8.542;2023-07-30T02:55:38;1.50;;;1.40;;
9892;SDS011;4985;49.092;8.542;2023-07-30T02:58:05;3.00;;;1.40;;
9892;SDS011;4985;49.092;8.542;2023-07-30T03:00:31;2.17;;;1.40;;
9892;SDS011;4985;49.092;8.542;2023-07-30T03:02:59;1.50;;;1.37;;
9892;SDS011;4985;49.092;8.542;2023-07-30T03:05:26;1.77;;;1.30;;
9892;SDS011;4985;49.092;8.542;2023-07-30T03:07:53;3.30;;;1.20;;
9892;SDS011;4985;49.092;8.542;2023-07-30T03:10:19;1.48;;;1.37;;
9892;SDS011;4985;49.092;8.542;2023-07-30T03:12:46;1.42;;;1.33;;
9892;SDS011;4985;49.092;8.542;2023-07-30T03:15:12;2.22;;;1.50;;
9892;SDS011;4985;49.092;8.542;2023-07-30T03:17:39;3.37;;;1.42;;
9892;SDS011;4985;49.092;8.542;2023-07-30T03:20:07;3.25;;;1.40;;
9892;SDS011;4985;49.092;8.542;2023-07-30T03:22:34;2.10;;;1.30;;
9892;SDS011;4985;49.092;8.542;2023-07-30T03:25:01;3.58;;;1.48;;
9892;SDS011;4985;49.092;8.542;2023-07-30T03:27:28;2.37;;;1.30;;
9892;SDS011;4985;49.092;8.542;2023-07-30T03:29:54;1.67;;;1.40;;
9892;SDS011;4985;49.092;8.542;2023-07-30T03:32:21;1.98;;;1.70;;
9892;SDS011;4985;49.092;8.542;2023-07-30T03:34:47;1.75;;;1.42;;
9892;SDS011;4985;49.092;8.542;2023-07-30T03:37:15;1.77;;;1.62;;
9892;SDS011;4985;49.092;8.542;2023-07-30T03:39:42;1.70;;;1.50;;
9892;SDS011;4985;49.092;8.542;2023-07-30T03:42:08;1.50;;;1.40;;
9892;SDS011;4985;49.092;8.542;2023-07-30T03:44:35;1.60;;;1.50;;
9892;SDS011;4985;49.092;8.542;2023-07-30T03:47:02;2.37;;;1.65;;
9892;SDS011;4985;49.092;8.542;2023-07-30T03:49:29;2.33;;;1.65;;
9892;SDS011;4985;49.092;8.542;2023-07-30T03:51:55;1.73;;;1.50;;
9892;SDS011;4985;49.092;8.542;2023-07-30T03:54:23;2.03;;;1.75;;
9892;SDS011;4985;49.092;8.542;2023-07-30T03:56:50;3.83;;;1.92;;
9892;SDS011;4985;49.092;8.542;2023-07-30T03:59:16;3.05;;;1.90;;
9892;SDS011;4985;49.092;8.542;2023-07-30T04:01:43;4.12;;;1.95;;
9892;SDS011;4985;49.092;8.542;2023-07-30T04:04:09;1.75;;;1.60;;
9892;SDS011;4985;49.092;8.542;2023-07-30T04:06:36;2.28;;;1.60;;
9892;SDS011;4985;49.092;8.542;2023-07-30T04:09:02;2.05;;;1.80;;
9892;SDS011;4985;49.092;8.542;2023-07-30T04:11:30;1.85;;;1.70;;
9892;SDS011;4985;49.092;8.542;2023-07-30T04:13:57;1.73;;;1.40;;
9892;SDS011;4985;49.092;8.542;2023-07-30T04:16:23;2.67;;;1.52;;
9892;SDS011;4985;49.092;8.542;2023-07-30T04:18:50;2.30;;;1.70;;
9892;SDS011;4985;49.092;8.542;2023-07-30T04:21:17;2.20;;;1.60;;
9892;SDS011;4985;49.092;8.542;2023-07-30T04:23:43;2.35;;;1.73;;
9892;SDS011;4985;49.092;8.542;2023-07-30T04:26:10;2.00;;;1.37;;
9892;SDS011;4985;49.092;8.542;2023-07-30T04:28:38;1.55;;;1.45;;
9892;SDS011;4985;49.092;8.542;2023-07-30T04:31:04;1.58;;;1.30;;
9892;SDS011;4985;49.092;8.542;2023-07-30T04:33:31;1.33;;;1.17;;
9892;SDS011;4985;49.092;8.542;2023-07-30T04:35:57;1.52;;;1.40;;
9892;SDS011;4985;49.092;8.542;2023-07-30T04:38:24;2.12;;;1.30;;
9892;SDS011;4985;49.092;8.542;2023-07-30T04:40:51;1.20;;;1.10;;
9892;SDS011;4985;49.092;8.542;2023-07-30T04:43:18;2.50;;;1.35;;
9892;SDS011;4985;49.092;8.542;2023-07-30T04:45:45;2.20;;;1.42;;
9892;SDS011;4985;49.092;8.542;2023-07-30T04:48:12;1.70;;;1.12;;
9892;SDS011;4985;49.092;8.542;2023-07-30T04:50:39;1.87;;;1.37;;
9892;SDS011;4985;49.092;8.542;2023-07-30T04:53:07;1.75;;;1.30;;
9892;SDS011;4985;49.092;8.542;2023-07-30T04:55:33;2.37;;;1.45;;
9892;SDS011;4985;49.092;8.542;2023-07-30T04:58:00;2.75;;;2.00;;
9892;SDS011;4985;49.092;8.542;2023-07-30T05:00:27;2.30;;;1.37;;
9892;SDS011;4985;49.092;8.542;2023-07-30T05:02:55;4.40;;;3.65;;
9892;SDS011;4985;49.092;8.542;2023-07-30T05:05:21;5.00;;;3.72;;
9892;SDS011;4985;49.092;8.542;2023-07-30T05:07:48;2.62;;;2.10;;
9892;SDS011;4985;49.092;8.542;2023-07-30T05:10:15;3.92;;;3.47;;
9892;SDS011;4985;49.092;8.542;2023-07-30T05:12:41;2.50;;;2.30;;
9892;SDS011;4985;49.092;8.542;2023-07-30T05:15:08;1.60;;;1.50;;
9892;SDS011;4985;49.092;8.542;2023-07-30T05:17:35;1.50;;;1.40;;
9892;SDS011;4985;49.092;8.542;2023-07-30T05:20:03;1.45;;;1.35;;
9892;SDS011;4985;49.092;8.542;2023-07-30T05:22:30;1.55;;;1.30;;
9892;SDS011;4985;49.092;8.542;2023-07-30T05:24:57;1.52;;;1.10;;
9892;SDS011;4985;49.092;8.542;2023-07-30T05:27:23;1.12;;;1.02;;
9892;SDS011;4985;49.092;8.542;2023-07-30T05:29:53;1.10;;;1.00;;
9892;SDS011;4985;49.092;8.542;2023-07-30T05:32:19;1.20;;;1.00;;
9892;SDS011;4985;49.092;8.542;2023-07-30T05:34:46;1.30;;;1.02;;
9892;SDS011;4985;49.092;8.542;2023-07-30T05:37:14;1.37;;;0.95;;
9892;SDS011;4985;49.092;8.542;2023-07-30T05:39:40;1.83;;;1.20;;
9892;SDS011;4985;49.092;8.542;2023-07-30T05:42:07;1.17;;;1.02;;
9892;SDS011;4985;49.092;8.542;2023-07-30T05:44:34;4.65;;;1.17;;
9892;SDS011;4985;49.092;8.542;2023-07-30T05:47:00;1.10;;;1.00;;
9892;SDS011;4985;49.092;8.542;2023-07-30T05:49:27;2.55;;;1.00;;
9892;SDS011;4985;49.092;8.542;2023-07-30T05:51:53;2.90;;;1.40;;
9892;SDS011;4985;49.092;8.542;2023-07-30T05:54:21;0.90;;;0.90;;
9892;SDS011;4985;49.092;8.542;2023-07-30T05:56:48;1.20;;;1.10;;
9892;SDS011;4985;49.092;8.542;2023-07-30T05:59:14;1.35;;;1.25;;
9892;SDS011;4985;49.092;8.542;2023-07-30T06:01:41;1.30;;;1.20;;
9892;SDS011;4985;49.092;8.542;2023-07-30T06:04:07;1.30;;;1.20;;
9892;SDS011;4985;49.092;8.542;2023-07-30T06:06:34;1.35;;;1.12;;
9892;SDS011;4985;49.092;8.542;2023-07-30T06:09:00;2.33;;;1.25;;
9892;SDS011;4985;49.092;8.542;2023-07-30T06:11:28;2.08;;;1.30;;
9892;SDS011;4985;49.092;8.542;2023-07-30T06:13:55;1.20;;;1.10;;
9892;SDS011;4985;49.092;8.542;2023-07-30T06:16:21;1.58;;;1.37;;
9892;SDS011;4985;49.092;8.542;2023-07-30T06:18:48;1.37;;;1.20;;
9892;SDS011;4985;49.092;8.542;2023-07-30T06:21:15;1.52;;;1.40;;
9892;SDS011;4985;49.092;8.542;2023-07-30T06:23:41;1.25;;;1.17;;
9892;SDS011;4985;49.092;8.542;2023-07-30T06:26:08;1.90;;;1.50;;
9892;SDS011;4985;49.092;8.542;2023-07-30T06:28:36;1.60;;;1.40;;
9892;SDS011;4985;49.092;8.542;2023-07-30T06:31:02;1.45;;;1.23;;
9892;SDS011;4985;49.092;8.542;2023-07-30T06:33:29;1.40;;;1.30;;
9892;SDS011;4985;49.092;8.542;2023-07-30T06:35:57;2.42;;;1.27;;
9892;SDS011;4985;49.092;8.542;2023-07-30T06:38:23;1.95;;;1.33;;
9892;SDS011;4985;49.092;8.542;2023-07-30T06:40:50;1.60;;;1.50;;
9892;SDS011;4985;49.092;8.542;2023-07-30T06:43:16;1.60;;;1.33;;
9892;SDS011;4985;49.092;8.542;2023-07-30T06:45:44;3.28;;;1.48;;
9892;SDS011;4985;49.092;8.542;2023-07-30T06:48:11;2.20;;;1.50;;
9892;SDS011;4985;49.092;8.542;2023-07-30T06:50:37;4.03;;;1.75;;
9892;SDS011;4985;49.092;8.542;2023-07-30T06:53:04;2.92;;;1.70;;
9892;SDS011;4985;49.092;8.542;2023-07-30T06:55:30;1.65;;;1.40;;
9892;SDS011;4985;49.092;8.542;2023-07-30T06:57:57;2.87;;;1.77;;
9892;SDS011;4985;49.092;8.542;2023-07-30T07:00:24;1.67;;;1.33;;
9892;SDS011;4985;49.092;8.542;2023-07-30T07:02:51;2.12;;;1.30;;
9892;SDS011;4985;49.092;8.542;2023-07-30T07:05:18;1.67;;;1.20;;
9892;SDS011;4985;49.092;8.542;2023-07-30T07:07:45;2.75;;;1.45;;
9892;SDS011;4985;49.092;8.542;2023-07-30T07:10:11;1.30;;;1.20;;
9892;SDS011;4985;49.092;8.542;2023-07-30T07:12:38;1.50;;;1.30;;
9892;SDS011;4985;49.092;8.542;2023-07-30T07:15:06;1.35;;;1.17;;
9892;SDS011;4985;49.092;8.542;2023-07-30T07:17:33;1.33;;;1.23;;
9892;SDS011;4985;49.092;8.542;2023-07-30T07:20:01;1.23;;;1.12;;
9892;SDS011;4985;49.092;8.542;2023-07-30T07:22:29;1.20;;;1.10;;
9892;SDS011;4985;49.092;8.542;2023-07-30T07:24:55;1.95;;;1.20;;
9892;SDS011;4985;49.092;8.542;2023-07-30T07:27:22;2.37;;;1.70;;
9892;SDS011;4985;49.092;8.542;2023-07-30T07:29:49;1.45;;;1.30;;
9892;SDS011;4985;49.092;8.542;2023-07-30T07:32:16;2.95;;;1.50;;
9892;SDS011;4985;49.092;8.542;2023-07-30T07:34:45;1.70;;;1.60;;
9892;SDS011;4985;49.092;8.542;2023-07-30T07:37:13;2.08;;;1.60;;
9892;SDS011;4985;49.092;8.542;2023-07-30T07:39:41;2.00;;;1.23;;
9892;SDS011;4985;49.092;8.542;2023-07-30T07:42:08;2.10;;;1.50;;
9892;SDS011;4985;49.092;8.542;2023-07-30T07:44:35;1.65;;;1.42;;
9892;SDS011;4985;49.092;8.542;2023-07-30T07:47:02;1.98;;;1.50;;
9892;SDS011;4985;49.092;8.542;2023-07-30T07:49:29;1.67;;;1.50;;
9892;SDS011;4985;49.092;8.542;2023-07-30T07:51:55;1.62;;;1.48;;
9892;SDS011;4985;49.092;8.542;2023-07-30T07:54:23;1.87;;;1.45;;
9892;SDS011;4985;49.092;8.542;2023-07-30T07:56:50;1.60;;;1.37;;
9892;SDS011;4985;49.092;8.542;2023-07-30T07:59:16;1.73;;;1.62;;
9892;SDS011;4985;49.092;8.542;2023-07-30T08:01:43;2.25;;;1.65;;
9892;SDS011;4985;49.092;8.542;2023-07-30T08:04:10;2.12;;;1.60;;
9892;SDS011;4985;49.092;8.542;2023-07-30T08:06:36;3.12;;;1.62;;
9892;SDS011;4985;49.092;8.542;2023-07-30T08:09:03;1.73;;;1.55;;
9892;SDS011;4985;49.092;8.542;2023-07-30T08:11:31;4.60;;;1.67;;
9892;SDS011;4985;49.092;8.542;2023-07-30T08:13:58;2.35;;;1.60;;
9892;SDS011;4985;49.092;8.542;2023-07-30T08:16:24;1.80;;;1.60;;
9892;SDS011;4985;49.092;8.542;2023-07-30T08:18:51;2.10;;;1.73;;
9892;SDS011;4985;49.092;8.542;2023-07-30T08:21:18;2.53;;;2.03;;
9892;SDS011;4985;49.092;8.542;2023-07-30T08:23:45;1.65;;;1.55;;
9892;SDS011;4985;49.092;8.542;2023-07-30T08:26:12;2.50;;;1.50;;
9892;SDS011;4985;49.092;8.542;2023-07-30T08:28:40;2.28;;;1.60;;
9892;SDS011;4985;49.092;8.542;2023-07-30T08:31:06;2.62;;;2.00;;
9892;SDS011;4985;49.092;8.542;2023-07-30T08:33:33;1.87;;;1.67;;
9892;SDS011;4985;49.092;8.542;2023-07-30T08:35:59;2.22;;;1.85;;
9892;SDS011;4985;49.092;8.542;2023-07-30T08:38:27;1.70;;;1.50;;
9892;SDS011;4985;49.092;8.542;2023-07-30T08:40:54;3.42;;;1.70;;
9892;SDS011;4985;49.092;8.542;2023-07-30T08:43:21;2.58;;;1.87;;
9892;SDS011;4985;49.092;8.542;2023-07-30T08:45:48;2.47;;;1.77;;
9892;SDS011;4985;49.092;8.542;2023-07-30T08:48:15;2.00;;;1.80;;
9892;SDS011;4985;49.092;8.542;2023-07-30T08:50:42;3.15;;;1.80;;
9892;SDS011;4985;49.092;8.542;2023-07-30T08:53:10;1.83;;;1.60;;
9892;SDS011;4985;49.092;8.542;2023-07-30T08:55:37;3.50;;;1.95;;
9892;SDS011;4985;49.092;8.542;2023-07-30T08:58:06;2.55;;;1.95;;
9892;SDS011;4985;49.092;8.542;2023-07-30T09:00:36;2.70;;;1.70;;
9892;SDS011;4985;49.092;8.542;2023-07-30T09:03:05;2.45;;;1.95;;
9892;SDS011;4985;49.092;8.542;2023-07-30T09:05:33;2.58;;;1.67;;
9892;SDS011;4985;49.092;8.542;2023-07-30T09:07:59;1.98;;;1.70;;
9892;SDS011;4985;49.092;8.542;2023-07-30T09:10:26;2.03;;;1.50;;
9892;SDS011;4985;49.092;8.542;2023-07-30T09:12:53;2.80;;;1.73;;
9892;SDS011;4985;49.092;8.542;2023-07-30T09:15:28;1.73;;;1.55;;
9892;SDS011;4985;49.092;8.542;2023-07-30T09:17:56;3.25;;;2.10;;
9892;SDS011;4985;49.092;8.542;2023-07-30T09:20:24;2.53;;;1.77;;
9892;SDS011;4985;49.092;8.542;2023-07-30T09:22:50;2.55;;;1.80;;
9892;SDS011;4985;49.092;8.542;2023-07-30T09:25:17;4.18;;;1.85;;
9892;SDS011;4985;49.092;8.542;2023-07-30T09:27:47;2.90;;;2.20;;
9892;SDS011;4985;49.092;8.542;2023-07-30T09:30:14;2.00;;;1.70;;
9892;SDS011;4985;49.092;8.542;2023-07-30T09:32:40;2.15;;;1.62;;
9892;SDS011;4985;49.092;8.542;2023-07-30T09:35:08;3.17;;;1.80;;
9892;SDS011;4985;49.092;8.542;2023-07-30T09:37:37;2.78;;;1.80;;
9892;SDS011;4985;49.092;8.542;2023-07-30T09:40:05;2.90;;;1.90;;
9892;SDS011;4985;49.092;8.542;2023-07-30T09:42:33;2.60;;;1.90;;
9892;SDS011;4985;49.092;8.542;2023-07-30T09:45:04;2.67;;;2.05;;
9892;SDS011;4985;49.092;8.542;2023-07-30T09:47:32;2.72;;;1.70;;
9892;SDS011;4985;49.092;8.542;2023-07-30T09:50:00;2.10;;;1.45;;
9892;SDS011;4985;49.092;8.542;2023-07-30T09:52:27;3.33;;;2.17;;
9892;SDS011;4985;49.092;8.542;2023-07-30T09:54:57;3.47;;;1.73;;
9892;SDS011;4985;49.092;8.542;2023-07-30T09:57:24;2.47;;;1.80;;
9892;SDS011;4985;49.092;8.542;2023-07-30T09:59:50;4.10;;;1.90;;
9892;SDS011;4985;49.092;8.542;2023-07-30T10:02:18;2.55;;;1.90;;
9892;SDS011;4985;49.092;8.542;2023-07-30T10:04:46;3.33;;;1.85;;
9892;SDS011;4985;49.092;8.542;2023-07-30T10:07:16;2.40;;;2.00;;
9892;SDS011;4985;49.092;8.542;2023-07-30T10:09:45;3.30;;;1.90;;
9892;SDS011;4985;49.092;8.542;2023-07-30T10:12:18;3.12;;;1.85;;
9892;SDS011;4985;49.092;8.542;2023-07-30T10:14:48;2.87;;;2.10;;
9892;SDS011;4985;49.092;8.542;2023-07-30T10:17:16;3.75;;;1.80;;
9892;SDS011;4985;49.092;8.542;2023-07-30T10:19:44;2.47;;;2.03;;
9892;SDS011;4985;49.092;8.542;2023-07-30T10:22:20;3.85;;;1.87;;
9892;SDS011;4985;49.092;8.542;2023-07-30T10:27:40;2.40;;;2.10;;
9892;SDS011;4985;49.092;8.542;2023-07-30T10:30:11;2.40;;;1.95;;
9892;SDS011;4985;49.092;8.542;2023-07-30T10:32:40;2.95;;;2.20;;
9892;SDS011;4985;49.092;8.542;2023-07-30T10:35:07;3.33;;;1.90;;
9892;SDS011;4985;49.092;8.542;2023-07-30T10:37:34;2.42;;;1.75;;
9892;SDS011;4985;49.092;8.542;2023-07-30T10:40:04;3.53;;;1.70;;
9892;SDS011;4985;49.092;8.542;2023-07-30T10:42:43;2.75;;;1.60;;
9892;SDS011;4985;49.092;8.542;2023-07-30T10:45:10;2.22;;;1.90;;
9892;SDS011;4985;49.092;8.542;2023-07-30T10:47:36;2.05;;;1.62;;
9892;SDS011;4985;49.092;8.542;2023-07-30T10:50:03;2.28;;;1.40;;
9892;SDS011;4985;49.092;8.542;2023-07-30T10:52:31;2.25;;;1.77;;
9892;SDS011;4985;49.092;8.542;2023-07-30T10:55:00;2.42;;;1.37;;
9892;SDS011;4985;49.092;8.542;2023-07-30T10:57:29;1.75;;;1.55;;
9892;SDS011;4985;49.092;8.542;2023-07-30T10:59:58;1.80;;;1.35;;
9892;SDS011;4985;49.092;8.542;2023-07-30T11:02:25;3.40;;;1.62;;
9892;SDS011;4985;49.092;8.542;2023-07-30T11:04:53;1.75;;;1.48;;
9892;SDS011;4985;49.092;8.542;2023-07-30T11:07:20;2.62;;;1.50;;
9892;SDS011;4985;49.092;8.542;2023-07-30T11:09:47;3.20;;;1.45;;
9892;SDS011;4985;49.092;8.542;2023-07-30T11:12:24;1.85;;;1.37;;
9892;SDS011;4985;49.092;8.542;2023-07-30T11:14:52;2.78;;;1.85;;
9892;SDS011;4985;49.092;8.542;2023-07-30T11:17:27;1.83;;;1.30;;
9892;SDS011;4985;49.092;8.542;2023-07-30T11:19:54;2.75;;;1.60;;
9892;SDS011;4985;49.092;8.542;2023-07-30T11:22:28;1.83;;;1.55;;
9892;SDS011;4985;49.092;8.542;2023-07-30T11:24:55;1.80;;;1.60;;
9892;SDS011;4985;49.092;8.542;2023-07-30T11:27:22;1.80;;;1.30;;
9892;SDS011;4985;49.092;8.542;2023-07-30T11:29:53;2.60;;;1.67;;
9892;SDS011;4985;49.092;8.542;2023-07-30T11:32:21;1.87;;;1.52;;
9892;SDS011;4985;49.092;8.542;2023-07-30T11:34:50;3.00;;;1.62;;
9892;SDS011;4985;49.092;8.542;2023-07-30T11:37:17;2.12;;;1.48;;
9892;SDS011;4985;49.092;8.542;2023-07-30T11:39:44;2.47;;;1.48;;
9892;SDS011;4985;49.092;8.542;2023-07-30T11:42:11;1.30;;;1.20;;
9892;SDS011;4985;49.092;8.542;2023-07-30T11:44:38;1.67;;;1.15;;
9892;SDS011;4985;49.092;8.542;2023-07-30T11:47:05;1.65;;;1.12;;
9892;SDS011;4985;49.092;8.542;2023-07-30T11:49:33;1.77;;;1.50;;
9892;SDS011;4985;49.092;8.542;2023-07-30T11:52:06;2.28;;;1.58;;
9892;SDS011;4985;49.092;8.542;2023-07-30T11:54:33;3.50;;;1.40;;
9892;SDS011;4985;49.092;8.542;2023-07-30T11:57:00;6.15;;;1.30;;
9892;SDS011;4985;49.092;8.542;2023-07-30T11:59:27;1.42;;;1.25;;
9892;SDS011;4985;49.092;8.542;2023-07-30T12:01:54;1.95;;;1.30;;
9892;SDS011;4985;49.092;8.542;2023-07-30T12:04:21;1.23;;;1.05;;
9892;SDS011;4985;49.092;8.542;2023-07-30T12:06:51;1.55;;;1.10;;
9892;SDS011;4985;49.092;8.542;2023-07-30T12:09:19;1.42;;;1.10;;
9892;SDS011;4985;49.092;8.542;2023-07-30T12:11:48;1.65;;;1.30;;
9892;SDS011;4985;49.092;8.542;2023-07-30T12:14:16;1.12;;;1.02;;
9892;SDS011;4985;49.092;8.542;2023-07-30T12:16:42;2.50;;;1.73;;
9892;SDS011;4985;49.092;8.542;2023-07-30T12:19:09;2.58;;;1.40;;
9892;SDS011;4985;49.092;8.542;2023-07-30T12:21:36;4.95;;;1.60;;
9892;SDS011;4985;49.092;8.542;2023-07-30T12:24:04;2.20;;;1.42;;
9892;SDS011;4985;49.092;8.542;2023-07-30T12:26:30;1.52;;;1.40;;
9892;SDS011;4985;49.092;8.542;2023-07-30T12:28:57;3.67;;;1.80;;
9892;SDS011;4985;49.092;8.542;2023-07-30T12:31:24;2.28;;;1.62;;
9892;SDS011;4985;49.092;8.542;2023-07-30T12:33:50;1.37;;;1.25;;
9892;SDS011;4985;49.092;8.542;2023-07-30T12:36:17;2.62;;;1.70;;
9892;SDS011;4985;49.092;8.542;2023-07-30T12:38:44;3.15;;;1.55;;
9892;SDS011;4985;49.092;8.542;2023-07-30T12:41:12;2.20;;;1.40;;
9892;SDS011;4985;49.092;8.542;2023-07-30T12:43:38;3.87;;;1.50;;
9892;SDS011;4985;49.092;8.542;2023-07-30T12:46:05;2.22;;;1.48;;
9892;SDS011;4985;49.092;8.542;2023-07-30T12:48:31;2.85;;;1.67;;
9892;SDS011;4985;49.092;8.542;2023-07-30T12:50:58;3.08;;;1.60;;
9892;SDS011;4985;49.092;8.542;2023-07-30T12:53:25;4.55;;;1.62;;
9892;SDS011;4985;49.092;8.542;2023-07-30T12:55:51;4.85;;;1.60;;
9892;SDS011;4985;49.092;8.542;2023-07-30T12:58:19;3.75;;;1.42;;
9892;SDS011;4985;49.092;8.542;2023-07-30T13:00:46;3.08;;;1.45;;
9892;SDS011;4985;49.092;8.542;2023-07-30T13:03:12;3.45;;;1.70;;
9892;SDS011;4985;49.092;8.542;2023-07-30T13:05:39;2.45;;;1.60;;
9892;SDS011;4985;49.092;8.542;2023-07-30T13:08:05;1.62;;;1.33;;
9892;SDS011;4985;49.092;8.542;2023-07-30T13:10:32;2.40;;;1.90;;
9892;SDS011;4985;49.092;8.542;2023-07-30T13:12:58;2.33;;;1.40;;
9892;SDS011;4985;49.092;8.542;2023-07-30T13:15:26;2.78;;;1.50;;
9892;SDS011;4985;49.092;8.542;2023-07-30T13:17:53;3.62;;;1.40;;
9892;SDS011;4985;49.092;8.542;2023-07-30T13:20:20;4.30;;;1.75;;
9892;SDS011;4985;49.092;8.542;2023-07-30T13:22:46;2.67;;;1.62;;
9892;SDS011;4985;49.092;8.542;2023-07-30T13:25:13;3.37;;;1.40;;
9892;SDS011;4985;49.092;8.542;2023-07-30T13:27:40;3.35;;;1.65;;
9892;SDS011;4985;49.092;8.542;2023-07-30T13:30:07;5.00;;;1.62;;
9892;SDS011;4985;49.092;8.542;2023-07-30T13:32:35;3.37;;;1.62;;
9892;SDS011;4985;49.092;8.542;2023-07-30T13:35:02;3.97;;;1.70;;
9892;SDS011;4985;49.092;8.542;2023-07-30T13:37:28;1.85;;;1.25;;
9892;SDS011;4985;49.092;8.542;2023-07-30T13:39:55;1.80;;;1.30;;
9892;SDS011;4985;49.092;8.542;2023-07-30T13:42:21;2.50;;;1.60;;
9892;SDS011;4985;49.092;8.542;2023-07-30T13:44:48;2.70;;;1.67;;
9892;SDS011;4985;49.092;8.542;2023-07-30T13:47:15;2.87;;;1.50;;
9892;SDS011;4985;49.092;8.542;2023-07-30T13:49:43;2.85;;;1.45;;
9892;SDS011;4985;49.092;8.542;2023-07-30T13:52:09;2.20;;;1.50;;
9892;SDS011;4985;49.092;8.542;2023-07-30T13:54:36;3.75;;;1.42;;
9892;SDS011;4985;49.092;8.542;2023-07-30T13:57:03;1.98;;;1.37;;
9892;SDS011;4985;49.092;8.542;2023-07-30T13:59:30;3.53;;;1.60;;
9892;SDS011;4985;49.092;8.542;2023-07-30T14:01:56;1.75;;;1.50;;
9892;SDS011;4985;49.092;8.542;2023-07-30T14:04:23;3.58;;;1.50;;
9892;SDS011;4985;49.092;8.542;2023-07-30T14:06:51;1.80;;;1.37;;
9892;SDS011;4985;49.092;8.542;2023-07-30T14:09:17;3.50;;;1.58;;
9892;SDS011;4985;49.092;8.542;2023-07-30T14:11:44;5.65;;;1.77;;
9892;SDS011;4985;49.092;8.542;2023-07-30T14:14:11;2.37;;;1.48;;
9892;SDS011;4985;49.092;8.542;2023-07-30T14:16:38;2.15;;;1.52;;
9892;SDS011;4985;49.092;8.542;2023-07-30T14:19:05;2.12;;;1.45;;
9892;SDS011;4985;49.092;8.542;2023-07-30T14:21:31;3.42;;;1.70;;
9892;SDS011;4985;49.092;8.542;2023-07-30T14:23:59;1.73;;;1.25;;
9892;SDS011;4985;49.092;8.542;2023-07-30T14:26:26;1.48;;;1.27;;
9892;SDS011;4985;49.092;8.542;2023-07-30T14:28:52;2.62;;;1.73;;
9892;SDS011;4985;49.092;8.542;2023-07-30T14:31:19;3.83;;;1.50;;
9892;SDS011;4985;49.092;8.542;2023-07-30T14:33:45;1.98;;;1.50;;
9892;SDS011;4985;49.092;8.542;2023-07-30T14:36:13;2.30;;;1.40;;
9892;SDS011;4985;49.092;8.542;2023-07-30T14:38:40;4.43;;;1.58;;
9892;SDS011;4985;49.092;8.542;2023-07-30T14:41:08;3.17;;;1.48;;
9892;SDS011;4985;49.092;8.542;2023-07-30T14:43:36;4.22;;;1.60;;
9892;SDS011;4985;49.092;8.542;2023-07-30T14:46:02;4.87;;;1.37;;
9892;SDS011;4985;49.092;8.542;2023-07-30T14:48:29;3.17;;;1.55;;
9892;SDS011;4985;49.092;8.542;2023-07-30T14:50:55;3.05;;;1.62;;
9892;SDS011;4985;49.092;8.542;2023-07-30T14:53:22;1.75;;;1.25;;
9892;SDS011;4985;49.092;8.542;2023-07-30T14:55:48;2.83;;;1.37;;
9892;SDS011;4985;49.092;8.542;2023-07-30T14:58:16;2.65;;;1.50;;
9892;SDS011;4985;49.092;8.542;2023-07-30T15:00:43;2.85;;;1.40;;
9892;SDS011;4985;49.092;8.542;2023-07-30T15:03:09;2.83;;;1.70;;
9892;SDS011;4985;49.092;8.542;2023-07-30T15:05:36;3.80;;;1.48;;
9892;SDS011;4985;49.092;8.542;2023-07-30T15:08:03;3.47;;;1.30;;
9892;SDS011;4985;49.092;8.542;2023-07-30T15:10:30;1.95;;;1.15;;
9892;SDS011;4985;49.092;8.542;2023-07-30T15:12:57;2.97;;;1.40;;
9892;SDS011;4985;49.092;8.542;2023-07-30T15:15:24;5.30;;;1.40;;
9892;SDS011;4985;49.092;8.542;2023-07-30T15:17:51;1.42;;;1.17;;